createdAt,value
2019-02-16T00:00:02.104Z,14.40
2019-02-16T00:02:30.305Z,14.73
2019-02-16T00:04:56.729Z,13.65
2019-02-16T00:07:23.028Z,13.20
2019-02-16T00:10:09.177Z,13.93
2019-02-16T00:12:35.565Z,14.05
2019-02-16T00:15:03.299Z,14.70
2019-02-16T00:17:29.641Z,14.03
2019-02-16T00:19:56.057Z,15.95
2019-02-16T00:22:22.346Z,14.58
2019-02-16T00:24:48.664Z,13.55
2019-02-16T00:27:14.951Z,12.13
2019-02-16T00:29:41.466Z,12.20
2019-02-16T00:32:07.855Z,11.90
2019-02-16T00:34:34.246Z,11.30
2019-02-16T00:37:00.545Z,12.37
2019-02-16T00:39:26.811Z,11.38
2019-02-16T00:41:53.075Z,11.83
2019-02-16T00:44:19.472Z,11.43
2019-02-16T00:46:45.748Z,11.00
2019-02-16T00:49:12.174Z,10.13
2019-02-16T00:51:38.447Z,11.70
2019-02-16T00:54:04.864Z,10.03
2019-02-16T00:56:31.153Z,10.45
2019-02-16T00:58:57.616Z,10.00
2019-02-16T01:01:24.134Z,9.98
2019-02-16T01:03:50.524Z,10.23
2019-02-16T01:06:17.037Z,11.65
2019-02-16T01:08:43.434Z,11.10
2019-02-16T01:11:09.827Z,9.90
2019-02-16T01:13:36.346Z,9.73
2019-02-16T01:16:02.742Z,11.25
2019-02-16T01:18:29.180Z,10.75
2019-02-16T01:20:55.643Z,10.68
2019-02-16T01:23:21.921Z,9.65
2019-02-16T01:25:48.367Z,9.35
2019-02-16T01:28:14.861Z,10.85
2019-02-16T01:30:41.171Z,8.90
2019-02-16T01:33:07.604Z,8.88
2019-02-16T01:35:34.037Z,8.68
2019-02-16T01:38:00.325Z,8.93
2019-02-16T01:40:26.741Z,8.83
2019-02-16T01:42:53.149Z,9.75
2019-02-16T01:45:19.587Z,8.85
2019-02-16T01:47:45.994Z,9.48
2019-02-16T01:50:12.432Z,10.30
2019-02-16T01:52:38.736Z,9.78
2019-02-16T01:55:07.229Z,10.48
2019-02-16T01:57:33.738Z,10.53
2019-02-16T02:00:00.006Z,8.93
2019-02-16T02:02:26.376Z,9.73
2019-02-16T02:04:53.119Z,9.28
2019-02-16T02:07:19.412Z,9.80
2019-02-16T02:09:45.800Z,9.30
2019-02-16T02:12:12.405Z,9.35
2019-02-16T02:14:38.945Z,8.30
2019-02-16T02:17:05.324Z,8.63
2019-02-16T02:19:31.742Z,8.00
2019-02-16T02:21:58.167Z,8.53
2019-02-16T02:24:24.492Z,8.88
2019-02-16T02:26:50.874Z,8.30
2019-02-16T02:29:17.167Z,8.90
2019-02-16T02:31:43.512Z,8.80
2019-02-16T02:34:09.787Z,8.85
2019-02-16T02:36:36.032Z,8.55
2019-02-16T02:39:03.890Z,9.18
2019-02-16T02:41:30.138Z,9.70
2019-02-16T02:43:56.464Z,9.80
2019-02-16T02:46:22.969Z,10.50
2019-02-16T02:48:49.336Z,10.00
2019-02-16T02:51:15.776Z,10.23
2019-02-16T02:53:42.207Z,9.03
2019-02-16T02:56:08.624Z,9.85
2019-02-16T02:58:34.920Z,10.15
2019-02-16T03:01:01.340Z,9.50
2019-02-16T03:03:27.817Z,9.50
2019-02-16T03:05:54.240Z,9.80
2019-02-16T03:08:20.640Z,9.55
2019-02-16T03:10:46.951Z,10.28
2019-02-16T03:13:13.380Z,10.00
2019-02-16T03:15:39.803Z,10.18
2019-02-16T03:18:06.250Z,8.35
2019-02-16T03:20:32.643Z,9.35
2019-02-16T03:23:15.940Z,9.23
2019-02-16T03:26:02.341Z,8.93
2019-02-16T03:28:32.494Z,8.60
2019-02-16T03:31:14.871Z,8.45
2019-02-16T03:34:00.062Z,9.48
2019-02-16T03:36:38.737Z,9.00
2019-02-16T03:39:08.387Z,8.75
2019-02-16T03:41:34.775Z,8.58
2019-02-16T03:44:01.252Z,8.10
2019-02-16T03:46:27.668Z,8.50
2019-02-16T03:48:53.956Z,7.83
2019-02-16T03:51:20.377Z,7.58
2019-02-16T03:53:46.700Z,7.15
2019-02-16T03:56:13.095Z,8.23
2019-02-16T03:58:39.432Z,7.17
2019-02-16T04:01:05.821Z,7.30
2019-02-16T04:03:32.207Z,6.95
2019-02-16T04:05:58.677Z,6.60
2019-02-16T04:08:25.078Z,6.75
2019-02-16T04:10:51.341Z,6.50
2019-02-16T04:13:17.632Z,7.35
2019-02-16T04:15:44.089Z,8.08
2019-02-16T04:18:10.397Z,7.28
2019-02-16T04:20:36.786Z,7.80
2019-02-16T04:23:03.207Z,7.20
2019-02-16T04:25:29.599Z,7.08
2019-02-16T04:27:55.949Z,5.62
2019-02-16T04:30:22.344Z,6.45
2019-02-16T04:32:48.757Z,6.58
2019-02-16T04:35:15.027Z,6.62
2019-02-16T04:37:41.453Z,7.00
2019-02-16T04:40:07.960Z,7.35
2019-02-16T04:42:34.324Z,7.20
2019-02-16T04:45:00.732Z,7.62
2019-02-16T04:47:27.248Z,7.97
2019-02-16T04:49:53.674Z,6.95
2019-02-16T04:52:19.963Z,8.30
2019-02-16T04:54:46.377Z,8.10
2019-02-16T04:57:12.819Z,7.60
2019-02-16T04:59:39.097Z,7.75
2019-02-16T05:02:05.501Z,7.60
2019-02-16T05:04:31.793Z,8.60
2019-02-16T05:06:58.223Z,8.03
2019-02-16T05:09:24.565Z,8.50
2019-02-16T05:11:50.865Z,7.55
2019-02-16T05:14:17.286Z,8.40
2019-02-16T05:16:43.724Z,7.35
2019-02-16T05:19:10.166Z,8.38
2019-02-16T05:21:36.659Z,8.70
2019-02-16T05:24:03.162Z,6.97
2019-02-16T05:26:29.519Z,7.30
2019-02-16T05:28:55.933Z,7.97
2019-02-16T05:31:22.221Z,8.18
2019-02-16T05:33:48.504Z,7.90
2019-02-16T05:36:15.065Z,7.33
2019-02-16T05:38:41.343Z,7.10
2019-02-16T05:41:07.672Z,6.78
2019-02-16T05:43:33.954Z,7.72
2019-02-16T05:46:00.240Z,7.00
2019-02-16T05:48:26.562Z,8.15
2019-02-16T05:50:52.977Z,6.83
2019-02-16T05:53:20.274Z,6.58
2019-02-16T05:55:46.746Z,7.37
2019-02-16T05:58:13.069Z,7.33
2019-02-16T06:00:39.491Z,7.87
2019-02-16T06:03:05.929Z,8.38
2019-02-16T06:05:32.228Z,7.42
2019-02-16T06:07:58.877Z,8.00
2019-02-16T06:10:25.179Z,7.75
2019-02-16T06:12:51.687Z,7.67
2019-02-16T06:15:18.087Z,8.03
2019-02-16T06:17:44.476Z,6.85
2019-02-16T06:20:11.000Z,7.50
2019-02-16T06:22:37.364Z,6.85
2019-02-16T06:25:04.957Z,6.92
2019-02-16T06:27:31.358Z,6.87
2019-02-16T06:29:57.698Z,6.92
2019-02-16T06:32:23.986Z,6.92
2019-02-16T06:34:52.302Z,7.83
2019-02-16T06:37:20.492Z,8.55
2019-02-16T06:39:48.094Z,9.48
2019-02-16T06:42:14.504Z,9.43
2019-02-16T06:44:40.940Z,8.70
2019-02-16T06:47:07.416Z,7.55
2019-02-16T06:49:33.843Z,8.00
2019-02-16T06:52:00.213Z,7.08
2019-02-16T06:54:26.579Z,7.95
2019-02-16T06:57:01.499Z,8.95
2019-02-16T06:59:27.996Z,11.15
2019-02-16T07:01:54.535Z,23.02
2019-02-16T07:04:21.001Z,24.50
2019-02-16T07:06:47.305Z,17.75
2019-02-16T07:09:13.566Z,17.60
2019-02-16T07:11:40.057Z,14.53
2019-02-16T07:14:06.550Z,11.93
2019-02-16T07:16:37.572Z,11.45
2019-02-16T07:19:05.820Z,22.45
2019-02-16T07:21:32.244Z,19.45
2019-02-16T07:23:58.544Z,11.25
2019-02-16T07:26:25.185Z,10.88
2019-02-16T07:28:51.421Z,10.70
2019-02-16T07:31:17.893Z,10.43
2019-02-16T07:33:44.475Z,10.75
2019-02-16T07:36:10.984Z,10.35
2019-02-16T07:38:37.321Z,10.50
2019-02-16T07:41:03.822Z,11.90
2019-02-16T07:43:34.722Z,14.35
2019-02-16T07:46:03.069Z,14.45
2019-02-16T07:48:31.391Z,14.78
2019-02-16T07:50:59.672Z,16.45
2019-02-16T07:53:33.783Z,16.37
2019-02-16T07:56:11.136Z,16.42
2019-02-16T07:58:51.323Z,16.93
2019-02-16T08:01:19.779Z,16.65
2019-02-16T08:03:47.974Z,17.67
2019-02-16T08:06:31.318Z,17.25
2019-02-16T08:08:59.506Z,16.02
2019-02-16T08:11:27.831Z,14.20
2019-02-16T08:13:58.081Z,13.72
2019-02-16T08:16:32.246Z,14.58
2019-02-16T08:19:06.794Z,13.40
2019-02-16T08:21:44.233Z,15.05
2019-02-16T08:24:30.568Z,14.68
2019-02-16T08:26:58.890Z,14.10
2019-02-16T08:29:42.169Z,14.95
2019-02-16T08:32:19.277Z,14.75
2019-02-16T08:34:58.802Z,14.58
2019-02-16T08:37:44.112Z,16.15
2019-02-16T08:40:21.014Z,15.13
2019-02-16T08:42:49.330Z,15.60
2019-02-16T08:45:34.161Z,15.83
2019-02-16T08:48:05.101Z,16.00
2019-02-16T08:50:33.281Z,14.95
2019-02-16T08:53:04.200Z,15.32
2019-02-16T08:55:35.402Z,13.80
2019-02-16T08:58:03.664Z,14.00
2019-02-16T09:00:34.581Z,15.35
2019-02-16T09:03:19.528Z,15.08
2019-02-16T09:05:53.479Z,14.70
2019-02-16T09:08:21.700Z,14.28
2019-02-16T09:10:49.954Z,13.30
2019-02-16T09:13:24.016Z,13.48
2019-02-16T09:15:52.186Z,11.97
2019-02-16T09:18:20.653Z,14.10
2019-02-16T09:21:04.166Z,12.50
2019-02-16T09:23:38.300Z,13.35
2019-02-16T09:26:18.507Z,13.98
2019-02-16T09:29:05.204Z,12.90
2019-02-16T09:31:50.015Z,13.00
2019-02-16T09:34:33.325Z,14.95
2019-02-16T09:37:01.643Z,14.35
2019-02-16T09:39:46.834Z,12.58
2019-02-16T09:42:31.634Z,10.90
2019-02-16T09:45:16.421Z,10.28
2019-02-16T09:47:44.787Z,10.40
2019-02-16T09:50:13.108Z,11.05
2019-02-16T09:52:53.287Z,10.95
2019-02-16T09:55:21.613Z,11.80
2019-02-16T09:58:01.862Z,14.30
2019-02-16T10:00:36.197Z,14.85
2019-02-16T10:03:13.442Z,15.88
2019-02-16T10:05:44.432Z,16.70
2019-02-16T10:08:15.608Z,18.17
2019-02-16T10:10:43.809Z,19.17
2019-02-16T10:13:28.594Z,17.37
2019-02-16T10:15:57.014Z,15.95
2019-02-16T10:18:25.346Z,14.73
2019-02-16T10:21:02.729Z,16.25
2019-02-16T10:23:47.702Z,16.52
2019-02-16T10:26:18.873Z,18.52
2019-02-16T10:28:49.586Z,19.48
2019-02-16T10:31:32.766Z,18.80
2019-02-16T10:34:00.980Z,19.90
2019-02-16T10:36:35.413Z,19.70
2019-02-16T10:39:09.711Z,18.52
2019-02-16T10:41:56.062Z,19.90
2019-02-16T10:44:33.072Z,20.10
2019-02-16T10:47:16.338Z,19.15
2019-02-16T10:49:50.461Z,19.37
2019-02-16T10:52:35.225Z,19.70
2019-02-16T10:55:06.135Z,19.87
2019-02-16T10:57:34.509Z,19.62
2019-02-16T11:00:02.716Z,19.98
2019-02-16T11:02:39.919Z,20.27
2019-02-16T11:05:08.339Z,19.92
2019-02-16T11:07:42.562Z,20.48
2019-02-16T11:10:17.000Z,18.95
2019-02-16T11:13:02.106Z,18.90
2019-02-16T11:15:30.561Z,19.45
2019-02-16T11:18:05.002Z,18.12
2019-02-16T11:20:48.545Z,21.45
2019-02-16T11:23:16.753Z,23.45
2019-02-16T11:25:51.029Z,23.02
2019-02-16T11:28:22.480Z,20.72
2019-02-16T11:30:56.756Z,19.80
2019-02-16T11:33:33.926Z,20.85
2019-02-16T11:36:08.115Z,20.62
2019-02-16T11:38:45.463Z,20.27
2019-02-16T11:41:18.867Z,18.92
2019-02-16T11:43:52.506Z,19.50
2019-02-16T11:46:23.397Z,20.23
2019-02-16T11:48:51.600Z,20.10
2019-02-16T11:51:22.584Z,18.27
2019-02-16T11:54:09.053Z,19.45
2019-02-16T11:56:46.239Z,19.12
2019-02-16T11:59:23.309Z,18.20
2019-02-16T12:01:57.657Z,18.73
2019-02-16T12:04:26.050Z,18.57
2019-02-16T12:07:00.324Z,18.00
2019-02-16T12:09:28.500Z,17.70
2019-02-16T12:12:02.464Z,17.40
2019-02-16T12:14:30.859Z,18.20
2019-02-16T12:17:01.805Z,18.40
2019-02-16T12:19:32.753Z,17.35
2019-02-16T12:22:09.725Z,17.77
2019-02-16T12:24:43.677Z,17.60
2019-02-16T12:27:20.833Z,19.60
2019-02-16T12:29:49.018Z,18.48
2019-02-16T12:32:17.405Z,19.45
2019-02-16T12:34:45.700Z,19.95
2019-02-16T12:37:22.866Z,20.60
2019-02-16T12:39:53.765Z,20.90
2019-02-16T12:42:38.764Z,19.42
2019-02-16T12:45:18.514Z,21.07
2019-02-16T12:47:49.745Z,20.35
2019-02-16T12:50:26.924Z,20.52
2019-02-16T12:52:57.849Z,19.02
2019-02-16T12:55:26.025Z,20.30
2019-02-16T12:57:57.257Z,19.75
2019-02-16T13:00:28.104Z,19.87
2019-02-16T13:02:56.292Z,17.92
2019-02-16T13:05:27.329Z,17.77
2019-02-16T13:07:55.525Z,19.27
2019-02-16T13:10:23.695Z,17.95
2019-02-16T13:12:51.897Z,19.02
2019-02-16T13:15:20.068Z,17.65
2019-02-16T13:18:00.265Z,18.23
2019-02-16T13:20:31.149Z,17.25
2019-02-16T13:23:11.555Z,16.60
2019-02-16T13:25:42.698Z,16.02
2019-02-16T13:28:27.702Z,17.30
2019-02-16T13:31:01.856Z,15.18
2019-02-16T13:33:42.444Z,15.53
2019-02-16T13:36:13.530Z,15.05
2019-02-16T13:38:58.670Z,14.90
2019-02-16T13:41:35.673Z,13.33
2019-02-16T13:44:03.875Z,12.85
2019-02-16T13:46:44.379Z,12.60
2019-02-16T13:49:15.540Z,11.83
2019-02-16T13:51:43.708Z,12.70
2019-02-16T13:54:12.088Z,12.93
2019-02-16T13:56:40.302Z,11.70
2019-02-16T13:59:08.572Z,12.40
2019-02-16T14:01:36.774Z,12.23
2019-02-16T14:04:08.771Z,13.20
2019-02-16T14:06:43.269Z,12.77
2019-02-16T14:09:11.489Z,13.53
2019-02-16T14:11:42.647Z,14.60
2019-02-16T14:14:10.813Z,13.07
2019-02-16T14:16:41.972Z,13.00
2019-02-16T14:19:08.241Z,13.43
2019-02-16T14:21:34.534Z,13.17
2019-02-16T14:24:00.829Z,11.40
2019-02-16T14:26:27.236Z,10.93
2019-02-16T14:28:53.613Z,11.87
2019-02-16T14:31:28.048Z,11.50
2019-02-16T14:33:48.260Z,12.33
2019-02-16T14:36:14.540Z,12.30
2019-02-16T14:38:42.741Z,12.50
2019-02-16T14:41:09.001Z,12.17
2019-02-16T14:43:35.273Z,12.60
2019-02-16T14:46:01.558Z,11.63
2019-02-16T14:48:27.918Z,11.03
2019-02-16T14:50:54.285Z,11.37
2019-02-16T14:53:20.674Z,12.60
2019-02-16T14:55:53.693Z,11.20
2019-02-16T14:58:15.708Z,11.13
2019-02-16T15:00:42.440Z,11.87
2019-02-16T15:03:08.807Z,11.53
2019-02-16T15:05:35.426Z,11.40
2019-02-16T15:08:02.154Z,11.40
2019-02-16T15:10:28.781Z,10.50
2019-02-16T15:12:55.524Z,11.20
2019-02-16T15:15:21.876Z,11.03
2019-02-16T15:17:48.185Z,10.63
2019-02-16T15:20:15.472Z,10.60
2019-02-16T15:22:41.721Z,10.97
2019-02-16T15:25:10.760Z,11.57
2019-02-16T15:27:37.169Z,13.97
2019-02-16T15:30:14.421Z,20.80
2019-02-16T15:32:44.800Z,27.00
2019-02-16T15:35:11.372Z,12.60
2019-02-16T15:37:37.873Z,13.77
2019-02-16T15:40:06.644Z,14.87
2019-02-16T15:42:32.928Z,22.30
2019-02-16T15:44:59.210Z,13.47
2019-02-16T15:47:25.486Z,13.33
2019-02-16T15:49:51.759Z,24.33
2019-02-16T15:52:18.030Z,27.70
2019-02-16T15:54:44.492Z,14.20
2019-02-16T15:57:10.812Z,13.37
2019-02-16T15:59:37.283Z,11.77
2019-02-16T16:02:03.746Z,10.30
2019-02-16T16:04:30.010Z,9.83
2019-02-16T16:06:56.389Z,8.57
2019-02-16T16:09:27.298Z,9.87
2019-02-16T16:12:07.648Z,11.60
2019-02-16T16:14:44.896Z,10.03
2019-02-16T16:17:18.834Z,11.33
2019-02-16T16:19:53.101Z,9.80
2019-02-16T16:22:21.468Z,10.10
2019-02-16T16:25:06.285Z,11.90
2019-02-16T16:27:34.464Z,10.30
2019-02-16T16:30:13.115Z,10.00
2019-02-16T16:32:44.177Z,10.40
2019-02-16T16:35:30.416Z,9.97
2019-02-16T16:38:04.579Z,9.57
2019-02-16T16:40:38.943Z,9.53
2019-02-16T16:43:13.357Z,11.33
2019-02-16T16:45:58.086Z,10.20
2019-02-16T16:48:29.009Z,9.50
2019-02-16T16:51:14.016Z,8.70
2019-02-16T16:53:57.417Z,9.00
2019-02-16T16:56:28.673Z,9.40
2019-02-16T16:59:01.539Z,9.43
2019-02-16T17:01:29.970Z,9.53
2019-02-16T17:04:01.077Z,9.40
2019-02-16T17:06:32.542Z,8.77
2019-02-16T17:09:03.448Z,9.80
2019-02-16T17:11:31.633Z,10.58
2019-02-16T17:14:12.048Z,9.53
2019-02-16T17:16:46.104Z,9.78
2019-02-16T17:19:23.518Z,10.50
2019-02-16T17:21:54.452Z,11.30
2019-02-16T17:24:22.738Z,11.10
2019-02-16T17:26:50.925Z,12.35
2019-02-16T17:29:22.134Z,11.20
2019-02-16T17:32:07.186Z,13.35
2019-02-16T17:34:38.354Z,13.35
2019-02-16T17:37:12.604Z,13.25
2019-02-16T17:39:53.053Z,15.00
2019-02-16T17:42:33.207Z,16.12
2019-02-16T17:45:07.140Z,13.05
2019-02-16T17:47:35.412Z,14.63
2019-02-16T17:50:21.908Z,14.20
2019-02-16T17:53:07.477Z,15.20
2019-02-16T17:55:50.630Z,15.30
2019-02-16T17:58:21.582Z,14.68
2019-02-16T18:00:49.866Z,16.40
2019-02-16T18:03:23.979Z,15.20
2019-02-16T18:05:54.874Z,17.80
2019-02-16T18:08:35.058Z,15.15
2019-02-16T18:11:06.190Z,15.80
2019-02-16T18:13:34.493Z,16.32
2019-02-16T18:16:05.628Z,16.32
2019-02-16T18:18:33.883Z,15.80
2019-02-16T18:21:08.022Z,13.85
2019-02-16T18:23:36.237Z,14.18
2019-02-16T18:26:04.497Z,13.70
2019-02-16T18:28:41.660Z,13.30
2019-02-16T18:31:25.015Z,13.98
2019-02-16T18:34:09.906Z,15.05
2019-02-16T18:36:56.166Z,15.13
2019-02-16T18:39:24.470Z,16.12
2019-02-16T18:41:53.194Z,15.30
2019-02-16T18:44:33.759Z,15.10
2019-02-16T18:47:04.705Z,15.45
2019-02-16T18:49:44.069Z,15.48
2019-02-16T18:52:24.904Z,16.55
2019-02-16T18:55:11.143Z,16.17
2019-02-16T18:57:56.601Z,15.23
2019-02-16T19:00:25.737Z,16.35
2019-02-16T19:03:04.311Z,16.60
2019-02-16T19:05:45.224Z,18.50
2019-02-16T19:08:15.136Z,20.75
2019-02-16T19:10:45.083Z,18.60
2019-02-16T19:13:14.952Z,17.60
2019-02-16T19:15:47.640Z,18.85
2019-02-16T19:18:31.596Z,17.32
2019-02-16T19:21:05.904Z,16.37
2019-02-16T19:23:51.094Z,16.37
2019-02-16T19:26:25.022Z,16.27
2019-02-16T19:29:05.551Z,16.67
2019-02-16T19:31:36.757Z,16.35
2019-02-16T19:34:13.731Z,16.62
2019-02-16T19:36:42.059Z,15.60
2019-02-16T19:39:25.313Z,16.05
2019-02-16T19:42:00.037Z,16.07
2019-02-16T19:44:37.613Z,15.63
2019-02-16T19:47:11.807Z,15.98
2019-02-16T19:49:40.002Z,16.12
2019-02-16T19:52:08.238Z,15.72
2019-02-16T19:54:44.259Z,16.07
2019-02-16T19:57:26.627Z,17.30
2019-02-16T20:00:05.761Z,16.17
2019-02-16T20:02:50.543Z,16.60
2019-02-16T20:05:35.341Z,17.65
2019-02-16T20:08:09.510Z,17.75
2019-02-16T20:10:49.729Z,16.87
2019-02-16T20:13:20.880Z,17.45
2019-02-16T20:15:51.792Z,15.90
2019-02-16T20:18:20.139Z,17.32
2019-02-16T20:21:05.021Z,17.10
2019-02-16T20:23:35.939Z,16.35
2019-02-16T20:26:21.016Z,17.55
2019-02-16T20:28:54.938Z,16.75
2019-02-16T20:31:29.161Z,17.07
2019-02-16T20:34:03.095Z,17.45
2019-02-16T20:36:31.381Z,18.50
2019-02-16T20:39:03.393Z,18.23
2019-02-16T20:41:31.580Z,19.27
2019-02-16T20:44:09.063Z,19.52
2019-02-16T20:46:53.940Z,17.50
2019-02-16T20:49:24.935Z,16.37
2019-02-16T20:54:45.424Z,14.90
2019-02-16T20:57:13.741Z,14.70
2019-02-16T20:59:44.940Z,14.00
2019-02-16T21:02:13.227Z,14.98
2019-02-16T21:04:41.428Z,14.68
2019-02-16T21:07:26.096Z,14.30
2019-02-16T21:10:10.902Z,14.10
2019-02-16T21:12:39.202Z,14.55
2019-02-16T21:15:13.705Z,13.72
2019-02-16T21:17:58.522Z,14.90
2019-02-16T21:20:26.757Z,15.85
2019-02-16T21:23:11.677Z,15.35
2019-02-16T21:25:48.885Z,16.70
2019-02-16T21:28:29.179Z,16.15
2019-02-16T21:31:03.429Z,16.10
2019-02-16T21:33:36.398Z,16.12
2019-02-16T21:36:04.607Z,16.27
2019-02-16T21:38:38.785Z,15.18
2019-02-16T21:41:07.100Z,15.80
2019-02-16T21:43:38.011Z,14.78
2019-02-16T21:46:22.919Z,14.30
2019-02-16T21:48:53.946Z,15.35
2019-02-16T21:51:24.866Z,16.65
2019-02-16T21:54:09.884Z,15.35
2019-02-16T21:56:40.769Z,15.20
2019-02-16T21:59:24.162Z,14.40
2019-02-16T22:01:55.244Z,14.45
2019-02-16T22:04:26.217Z,13.32
2019-02-16T22:07:19.862Z,14.98
2019-02-16T22:10:00.141Z,14.30
2019-02-16T22:12:31.489Z,13.90
2019-02-16T22:14:57.736Z,14.35
2019-02-16T22:17:24.003Z,14.58
2019-02-16T22:19:50.353Z,15.20
2019-02-16T22:22:16.840Z,14.80
2019-02-16T22:24:43.340Z,14.45
2019-02-16T22:27:09.674Z,14.55
2019-02-16T22:29:35.981Z,15.63
2019-02-16T22:32:02.459Z,15.93
2019-02-16T22:34:28.887Z,15.58
2019-02-16T22:36:55.395Z,14.95
2019-02-16T22:39:21.674Z,15.88
2019-02-16T22:41:48.099Z,16.82
2019-02-16T22:44:14.483Z,15.10
2019-02-16T22:46:40.909Z,14.68
2019-02-16T22:49:07.336Z,15.18
2019-02-16T22:51:33.626Z,14.38
2019-02-16T22:53:59.893Z,16.17
2019-02-16T22:56:26.501Z,14.90
2019-02-16T22:58:52.834Z,14.40
2019-02-16T23:01:19.521Z,14.70
2019-02-16T23:03:45.920Z,14.78
2019-02-16T23:06:12.382Z,14.47
2019-02-16T23:08:38.796Z,15.30
2019-02-16T23:11:05.277Z,14.30
2019-02-16T23:13:31.789Z,15.78
2019-02-16T23:15:58.350Z,15.93
2019-02-16T23:18:24.693Z,15.70
2019-02-16T23:20:50.953Z,15.63
2019-02-16T23:23:17.388Z,15.10
2019-02-16T23:25:43.856Z,14.73
2019-02-16T23:28:10.381Z,15.50
2019-02-16T23:30:36.770Z,15.63
2019-02-16T23:33:03.265Z,15.30
2019-02-16T23:35:29.669Z,14.50
2019-02-16T23:37:56.135Z,15.72
2019-02-16T23:40:22.393Z,14.50
2019-02-16T23:42:48.752Z,15.20
2019-02-16T23:45:15.189Z,14.87
2019-02-16T23:47:41.568Z,16.27
2019-02-16T23:50:09.554Z,15.80
2019-02-16T23:52:36.004Z,15.65
2019-02-16T23:55:05.348Z,15.43
2019-02-16T23:57:31.830Z,14.63
2019-02-16T23:59:58.088Z,15.18
